LFPOLGKO

Guest
Details From LFPO - Paris Orly
To LGKO - Kos
Flight Number -
Tags Generated
Created
Modified
Stats Distance 1,294 nm / 2,397 km
Max Altitude 0 ft / 0 m
Waypoints 7
Social Downloads 0
Likes 0
Share VATSIM

Download

Looking for another format? Having issues loading an existing format? Contact us
Advertisement - Login to hide

Notes

Generated

Route

LFPO ZB526 BAXON PINUK STV KOS31 LGKO

ID Type Via Altitude Latitude Longitude Leg Dist Tot Dist Heading (true) Name
O LFPO APT - 0 ft / 0 m 48.71772˚ 2.37681˚ - 0 nm - -
ZB526 FIX - 0 ft / 0 m 46.85806˚ 7.60222˚ 238 nm 238 nm 116° / 120° -
BAXON FIX - 0 ft / 0 m 44.41639˚ 13.46306˚ 286 nm 524 nm 119° / 123° -
PINUK FIX - 0 ft / 0 m 41.86556˚ 18.59000˚ 271 nm 796 nm 123° / 126° -
STV VOR - 0 ft / 0 m 39.48014˚ 22.77156˚ 238 nm 1035 nm 126° / 128° STEFANOVIKION VOR
KOS31 FIX - 0 ft / 0 m 36.89596˚ 26.95781˚ 251 nm 1286 nm 127° / 129° -
O LGKO APT - 0 ft / 0 m 36.80364˚ 27.08364˚ 8 nm 1294 nm 132° / 133° -

Altitude Profile

Advertisement - Login to hide

Weather


0- 5 10 15 20 25 30 35+ Temperature / ° C

Clouds and Precipitation
Forecast for 2017-12-12 06:00 UTC. Updated 2 hours ago

Ground ~20,000 ft ~40,000 ft Winds

LFPO

Details ICAO LFPO (ORY)
Name Paris Orly
Region France
Timezone Europe/Paris (UTC+1.0)
Stats Elevation 291 ft / 89 m (AMSL)
Location 48.726360° 2.367029°
Runways 3
Magnetic Variation 0.599° E

METAR

LFPO 120700Z AUTO 24005KT 9999 SCT040 00/M01 Q1008

Decode

TAF

Not found

Departure Runways

ID Width Length Bearing (true) Bearing (mag) Surface Threshold Offset Overrun Length
02 197 ft / 60 m 7,873 ft / 2,400 m 18.29° 17.69° Concrete 0 ft / 0 m 0 ft / 0 m
06 148 ft / 45 m 11,952 ft / 3,643 m 61.78° 61.18° Asphalt 984 ft / 300 m 197 ft / 60 m
08 148 ft / 45 m 10,868 ft / 3,313 m 74.36° 73.76° Concrete 0 ft / 0 m 1,050 ft / 320 m
20 197 ft / 60 m 7,873 ft / 2,400 m 198.30° 197.70° Concrete 0 ft / 0 m 0 ft / 0 m
24 148 ft / 45 m 11,952 ft / 3,643 m 241.81° 241.21° Asphalt 0 ft / 0 m 197 ft / 60 m
26 148 ft / 45 m 10,868 ft / 3,313 m 254.39° 253.79° Concrete 1,427 ft / 435 m 0 ft / 0 m

LGKO

Details ICAO LGKO (KGS)
Name KOS
Region Greece
Timezone Europe/Athens (UTC+2.0)
Stats Elevation 412 ft / 126 m (AMSL)
Location 36.794403° 27.090764°
Runways 1
Magnetic Variation 4.723° E

METAR

LGKO 120650Z VRB03KT 9999 FEW015 SCT035 15/13 Q1024

Decode

TAF

TAF LGKO 120500Z 1206/1306 VRB03KT 9999 FEW016 BECMG 1215/1217 31012KT

Decode

Destination Runways

ID Width Length Bearing (true) Bearing (mag) Surface Threshold Offset Overrun Length
14 148 ft / 45 m 7,923 ft / 2,415 m 148.29° 143.57° Asphalt 0 ft / 0 m 240 ft / 73 m
32 148 ft / 45 m 7,923 ft / 2,415 m 328.30° 323.58° Asphalt 0 ft / 0 m 205 ft / 62 m